Terminal Aerodrome Forecast
Issued by NWS

Home | Current Version | Previous Version | Text Only | Print | Product List | Glossary On
Versions: 1 2 3 4 5 6 7 8 9 10 11 12 13 14 15 16 17 18 19 20 21 22 23 24 25 26 27 28 29 30 31 32 33 34 35 36 37 38 39 40 41 42 43 44 45 46 47 48 49 50
000
FTUS45 KBOU 250525
TAFBJC
TAF
KBJC 250525Z 2506/2606 VRB03KT P6SM SKC
     FM250900 20006KT P6SM FEW250
     FM251600 15008KT P6SM SCT250
     FM252300 18012KT P6SM SCT090 BKN200
     FM260500 31008KT P6SM VCSH SCT040 BKN100=

USA.gov is the U.S. government's official web portal to all federal, state and local government web resources and services.